sensor_id;sensor_type;location;lat;lon;timestamp;temperature;humidity
47514;DHT22;33951;51.988;5.910;2022-09-21T05:02:18;9.50;99.90
47514;DHT22;33951;51.988;5.910;2022-09-21T05:04:44;9.40;99.90
47514;DHT22;33951;51.988;5.910;2022-09-21T05:07:10;9.40;99.90
47514;DHT22;33951;51.988;5.910;2022-09-21T05:09:35;9.30;99.90
47514;DHT22;33951;51.988;5.910;2022-09-21T05:12:19;9.20;99.90
47514;DHT22;33951;51.988;5.910;2022-09-21T05:14:45;9.10;99.90
47514;DHT22;33951;51.988;5.910;2022-09-21T05:17:11;9.20;99.90
47514;DHT22;33951;51.988;5.910;2022-09-21T05:19:37;9.20;99.90
47514;DHT22;33951;51.988;5.910;2022-09-21T05:22:05;9.20;99.90
47514;DHT22;33951;51.988;5.910;2022-09-21T05:24:30;9.10;99.90
47514;DHT22;33951;51.988;5.910;2022-09-21T05:26:56;9.10;99.90
47514;DHT22;33951;51.988;5.910;2022-09-21T05:29:22;9.20;99.90
47514;DHT22;33951;51.988;5.910;2022-09-21T05:32:08;9.20;99.90
47514;DHT22;33951;51.988;5.910;2022-09-21T05:37:35;9.10;99.90
47514;DHT22;33951;51.988;5.910;2022-09-21T05:40:06;9.20;99.90
47514;DHT22;33951;51.988;5.910;2022-09-21T05:42:32;9.30;99.90
47514;DHT22;33951;51.988;5.910;2022-09-21T05:44:58;9.30;99.90
47514;DHT22;33951;51.988;5.910;2022-09-21T05:47:44;9.40;99.90
47514;DHT22;33951;51.988;5.910;2022-09-21T05:51:08;9.30;99.90
47514;DHT22;33951;51.988;5.910;2022-09-21T05:56:27;9.30;99.90
47514;DHT22;33951;51.988;5.910;2022-09-21T06:04:40;9.50;99.90
47514;DHT22;33951;51.988;5.910;2022-09-21T06:07:05;9.50;99.90
47514;DHT22;33951;51.988;5.910;2022-09-21T06:09:33;9.40;99.90
47514;DHT22;33951;51.988;5.910;2022-09-21T06:11:59;9.40;99.90
47514;DHT22;33951;51.988;5.910;2022-09-21T06:14:27;9.40;99.90
47514;DHT22;33951;51.988;5.910;2022-09-21T06:16:56;9.60;99.90
47514;DHT22;33951;51.988;5.910;2022-09-21T06:19:26;9.60;99.90
47514;DHT22;33951;51.988;5.910;2022-09-21T06:21:55;9.70;99.90
47514;DHT22;33951;51.988;5.910;2022-09-21T06:24:21;9.70;99.90
47514;DHT22;33951;51.988;5.910;2022-09-21T06:26:47;9.80;99.90
47514;DHT22;33951;51.988;5.910;2022-09-21T06:29:13;9.80;99.90
47514;DHT22;33951;51.988;5.910;2022-09-21T06:31:41;9.70;99.90
47514;DHT22;33951;51.988;5.910;2022-09-21T06:34:07;9.80;99.90
47514;DHT22;33951;51.988;5.910;2022-09-21T06:36:33;9.80;99.90
47514;DHT22;33951;51.988;5.910;2022-09-21T06:38:58;9.80;99.90
47514;DHT22;33951;51.988;5.910;2022-09-21T06:41:27;10.00;99.90
47514;DHT22;33951;51.988;5.910;2022-09-21T06:43:53;9.90;99.90
47514;DHT22;33951;51.988;5.910;2022-09-21T06:46:21;10.00;99.90
47514;DHT22;33951;51.988;5.910;2022-09-21T06:48:46;9.80;99.90
47514;DHT22;33951;51.988;5.910;2022-09-21T06:51:13;9.80;99.90
47514;DHT22;33951;51.988;5.910;2022-09-21T06:53:38;9.70;99.90
47514;DHT22;33951;51.988;5.910;2022-09-21T06:56:06;9.90;99.90
47514;DHT22;33951;51.988;5.910;2022-09-21T06:58:33;10.20;99.90
47514;DHT22;33951;51.988;5.910;2022-09-21T07:01:10;10.40;99.90
47514;DHT22;33951;51.988;5.910;2022-09-21T07:03:36;10.40;99.90
47514;DHT22;33951;51.988;5.910;2022-09-21T07:06:02;10.40;99.90
47514;DHT22;33951;51.988;5.910;2022-09-21T07:08:28;10.40;99.90
47514;DHT22;33951;51.988;5.910;2022-09-21T07:10:57;10.60;99.90
47514;DHT22;33951;51.988;5.910;2022-09-21T07:13:24;10.60;99.90
47514;DHT22;33951;51.988;5.910;2022-09-21T07:15:49;10.40;99.90
47514;DHT22;33951;51.988;5.910;2022-09-21T07:18:17;10.60;99.90
47514;DHT22;33951;51.988;5.910;2022-09-21T07:20:43;10.80;99.90
47514;DHT22;33951;51.988;5.910;2022-09-21T07:23:13;10.80;99.90
47514;DHT22;33951;51.988;5.910;2022-09-21T07:25:40;10.90;99.90
47514;DHT22;33951;51.988;5.910;2022-09-21T07:28:06;11.00;99.90
47514;DHT22;33951;51.988;5.910;2022-09-21T07:30:32;11.00;99.90
47514;DHT22;33951;51.988;5.910;2022-09-21T07:32:58;11.00;99.90
47514;DHT22;33951;51.988;5.910;2022-09-21T07:35:24;10.90;99.90
47514;DHT22;33951;51.988;5.910;2022-09-21T07:37:52;11.10;99.90
47514;DHT22;33951;51.988;5.910;2022-09-21T07:40:18;11.10;99.90
47514;DHT22;33951;51.988;5.910;2022-09-21T07:42:43;11.10;99.90
47514;DHT22;33951;51.988;5.910;2022-09-21T07:45:10;11.40;99.90
47514;DHT22;33951;51.988;5.910;2022-09-21T07:47:35;11.50;99.90
47514;DHT22;33951;51.988;5.910;2022-09-21T07:50:01;11.50;99.90
47514;DHT22;33951;51.988;5.910;2022-09-21T07:52:26;11.70;99.90
47514;DHT22;33951;51.988;5.910;2022-09-21T07:54:52;11.60;99.90
47514;DHT22;33951;51.988;5.910;2022-09-21T07:57:20;11.70;99.90
47514;DHT22;33951;51.988;5.910;2022-09-21T08:00:05;11.70;99.90
47514;DHT22;33951;51.988;5.910;2022-09-21T08:02:31;11.70;99.90
47514;DHT22;33951;51.988;5.910;2022-09-21T08:04:56;11.90;99.90
47514;DHT22;33951;51.988;5.910;2022-09-21T08:07:22;11.90;99.90
47514;DHT22;33951;51.988;5.910;2022-09-21T08:09:47;11.80;99.90
47514;DHT22;33951;51.988;5.910;2022-09-21T08:12:17;11.80;99.90
47514;DHT22;33951;51.988;5.910;2022-09-21T08:14:44;11.90;99.90
47514;DHT22;33951;51.988;5.910;2022-09-21T08:17:10;12.10;99.90
47514;DHT22;33951;51.988;5.910;2022-09-21T08:19:35;12.00;99.90
47514;DHT22;33951;51.988;5.910;2022-09-21T08:22:01;12.00;99.90
47514;DHT22;33951;51.988;5.910;2022-09-21T08:24:27;12.10;99.90
47514;DHT22;33951;51.988;5.910;2022-09-21T08:26:53;12.20;99.90
47514;DHT22;33951;51.988;5.910;2022-09-21T08:29:20;12.40;99.90
47514;DHT22;33951;51.988;5.910;2022-09-21T08:31:45;12.40;99.90
47514;DHT22;33951;51.988;5.910;2022-09-21T08:34:11;12.60;99.90
47514;DHT22;33951;51.988;5.910;2022-09-21T08:36:37;12.60;99.90
47514;DHT22;33951;51.988;5.910;2022-09-21T08:39:06;12.70;99.90
47514;DHT22;33951;51.988;5.910;2022-09-21T08:44:19;12.60;99.90
47514;DHT22;33951;51.988;5.910;2022-09-21T08:46:52;12.50;99.90
47514;DHT22;33951;51.988;5.910;2022-09-21T08:49:24;12.50;99.90
47514;DHT22;33951;51.988;5.910;2022-09-21T08:51:55;12.70;99.90
47514;DHT22;33951;51.988;5.910;2022-09-21T08:56:53;13.10;99.90
47514;DHT22;33951;51.988;5.910;2022-09-21T08:59:19;13.00;99.90
47514;DHT22;33951;51.988;5.910;2022-09-21T09:04:49;13.00;99.90
47514;DHT22;33951;51.988;5.910;2022-09-21T09:10:11;13.40;99.90
47514;DHT22;33951;51.988;5.910;2022-09-21T09:16:03;13.50;99.90
47514;DHT22;33951;51.988;5.910;2022-09-21T09:18:53;13.60;99.90
47514;DHT22;33951;51.988;5.910;2022-09-21T09:21:28;13.90;99.90
47514;DHT22;33951;51.988;5.910;2022-09-21T09:26:35;13.90;99.90
47514;DHT22;33951;51.988;5.910;2022-09-21T09:29:13;14.10;99.90
47514;DHT22;33951;51.988;5.910;2022-09-21T09:31:41;14.20;99.90
47514;DHT22;33951;51.988;5.910;2022-09-21T09:34:25;14.10;99.90
47514;DHT22;33951;51.988;5.910;2022-09-21T09:36:57;14.20;99.90
47514;DHT22;33951;51.988;5.910;2022-09-21T09:39:23;14.50;99.90
47514;DHT22;33951;51.988;5.910;2022-09-21T09:42:14;14.60;99.90
47514;DHT22;33951;51.988;5.910;2022-09-21T09:47:56;15.10;99.90
47514;DHT22;33951;51.988;5.910;2022-09-21T09:50:34;15.20;99.90
47514;DHT22;33951;51.988;5.910;2022-09-21T09:53:23;15.20;99.90
47514;DHT22;33951;51.988;5.910;2022-09-21T09:55:52;15.40;99.90
47514;DHT22;33951;51.988;5.910;2022-09-21T10:00:53;15.70;99.90
47514;DHT22;33951;51.988;5.910;2022-09-21T10:03:22;15.90;99.90
47514;DHT22;33951;51.988;5.910;2022-09-21T10:05:48;15.90;99.90
47514;DHT22;33951;51.988;5.910;2022-09-21T10:10:52;16.60;99.90
47514;DHT22;33951;51.988;5.910;2022-09-21T10:13:38;16.90;99.90
47514;DHT22;33951;51.988;5.910;2022-09-21T10:18:38;17.10;99.90
47514;DHT22;33951;51.988;5.910;2022-09-21T10:24:01;17.40;99.90
47514;DHT22;33951;51.988;5.910;2022-09-21T10:27:12;17.40;99.90
47514;DHT22;33951;51.988;5.910;2022-09-21T10:29:47;17.30;99.90
47514;DHT22;33951;51.988;5.910;2022-09-21T10:37:32;18.00;99.90
47514;DHT22;33951;51.988;5.910;2022-09-21T10:39:59;18.50;99.90
47514;DHT22;33951;51.988;5.910;2022-09-21T10:42:34;18.90;99.90
47514;DHT22;33951;51.988;5.910;2022-09-21T10:47:40;19.20;99.90
47514;DHT22;33951;51.988;5.910;2022-09-21T10:50:26;19.20;99.90
47514;DHT22;33951;51.988;5.910;2022-09-21T10:53:16;19.50;99.90
47514;DHT22;33951;51.988;5.910;2022-09-21T10:55:54;19.80;99.90
47514;DHT22;33951;51.988;5.910;2022-09-21T10:58:21;20.00;99.90
47514;DHT22;33951;51.988;5.910;2022-09-21T11:00:50;19.70;99.90
47514;DHT22;33951;51.988;5.910;2022-09-21T11:06:35;20.50;99.90
47514;DHT22;33951;51.988;5.910;2022-09-21T11:09:17;20.80;99.90
47514;DHT22;33951;51.988;5.910;2022-09-21T11:12:06;21.00;99.90
47514;DHT22;33951;51.988;5.910;2022-09-21T11:14:44;21.30;99.20
47514;DHT22;33951;51.988;5.910;2022-09-21T11:20:45;21.80;96.70
47514;DHT22;33951;51.988;5.910;2022-09-21T11:26:29;21.60;96.30
47514;DHT22;33951;51.988;5.910;2022-09-21T11:34:34;21.70;96.50
47514;DHT22;33951;51.988;5.910;2022-09-21T11:37:28;21.60;95.90
47514;DHT22;33951;51.988;5.910;2022-09-21T11:56:40;21.50;97.70
47514;DHT22;33951;51.988;5.910;2022-09-21T11:59:18;21.40;97.50
47514;DHT22;33951;51.988;5.910;2022-09-21T12:07:53;21.60;97.30
47514;DHT22;33951;51.988;5.910;2022-09-21T12:13:36;21.60;98.00
47514;DHT22;33951;51.988;5.910;2022-09-21T12:21:39;21.60;97.90
47514;DHT22;33951;51.988;5.910;2022-09-21T12:24:30;21.40;97.60
47514;DHT22;33951;51.988;5.910;2022-09-21T12:27:03;21.20;98.40
47514;DHT22;33951;51.988;5.910;2022-09-21T12:29:38;20.90;97.90
47514;DHT22;33951;51.988;5.910;2022-09-21T12:34:59;20.60;97.70
47514;DHT22;33951;51.988;5.910;2022-09-21T12:37:43;20.50;98.10
47514;DHT22;33951;51.988;5.910;2022-09-21T12:45:36;20.50;99.20
47514;DHT22;33951;51.988;5.910;2022-09-21T12:50:47;20.80;98.30
47514;DHT22;33951;51.988;5.910;2022-09-21T12:53:19;21.00;97.80
47514;DHT22;33951;51.988;5.910;2022-09-21T13:04:21;22.00;96.40
47514;DHT22;33951;51.988;5.910;2022-09-21T13:09:48;22.10;94.70
47514;DHT22;33951;51.988;5.910;2022-09-21T13:12:28;22.10;95.90
47514;DHT22;33951;51.988;5.910;2022-09-21T13:15:04;22.00;94.40
47514;DHT22;33951;51.988;5.910;2022-09-21T13:17:37;22.20;94.40
47514;DHT22;33951;51.988;5.910;2022-09-21T13:20:18;22.40;95.40
47514;DHT22;33951;51.988;5.910;2022-09-21T13:22:45;22.70;94.50
47514;DHT22;33951;51.988;5.910;2022-09-21T13:25:24;23.00;94.10
47514;DHT22;33951;51.988;5.910;2022-09-21T13:54:46;24.50;91.40
47514;DHT22;33951;51.988;5.910;2022-09-21T13:57:24;24.70;90.90
47514;DHT22;33951;51.988;5.910;2022-09-21T14:05:26;24.80;89.80
47514;DHT22;33951;51.988;5.910;2022-09-21T14:08:01;24.90;89.20
47514;DHT22;33951;51.988;5.910;2022-09-21T14:10:29;25.00;88.90
47514;DHT22;33951;51.988;5.910;2022-09-21T14:12:58;25.00;89.70
47514;DHT22;33951;51.988;5.910;2022-09-21T14:23:33;24.90;86.30
47514;DHT22;33951;51.988;5.910;2022-09-21T14:26:00;24.50;87.00
47514;DHT22;33951;51.988;5.910;2022-09-21T14:28:43;24.60;88.30
47514;DHT22;33951;51.988;5.910;2022-09-21T14:31:19;24.70;87.90
47514;DHT22;33951;51.988;5.910;2022-09-21T14:33:56;24.70;86.60
47514;DHT22;33951;51.988;5.910;2022-09-21T14:36:37;24.60;86.70
47514;DHT22;33951;51.988;5.910;2022-09-21T14:39:19;24.30;86.90
47514;DHT22;33951;51.988;5.910;2022-09-21T14:41:48;24.20;86.50
47514;DHT22;33951;51.988;5.910;2022-09-21T14:44:26;24.10;87.80
47514;DHT22;33951;51.988;5.910;2022-09-21T14:47:11;23.50;87.70
47514;DHT22;33951;51.988;5.910;2022-09-21T14:55:40;23.10;89.20
47514;DHT22;33951;51.988;5.910;2022-09-21T15:04:17;22.40;88.00
47514;DHT22;33951;51.988;5.910;2022-09-21T15:13:43;21.60;90.50
47514;DHT22;33951;51.988;5.910;2022-09-21T15:16:40;21.00;90.00
47514;DHT22;33951;51.988;5.910;2022-09-21T15:19:26;20.30;90.50
47514;DHT22;33951;51.988;5.910;2022-09-21T15:21:53;20.10;90.90
47514;DHT22;33951;51.988;5.910;2022-09-21T15:24:26;20.10;91.30
47514;DHT22;33951;51.988;5.910;2022-09-21T15:27:00;20.30;90.70
47514;DHT22;33951;51.988;5.910;2022-09-21T15:29:29;20.50;90.50
47514;DHT22;33951;51.988;5.910;2022-09-21T15:31:59;20.30;90.50
47514;DHT22;33951;51.988;5.910;2022-09-21T15:34:25;20.40;90.80
47514;DHT22;33951;51.988;5.910;2022-09-21T15:36:51;20.40;91.40
47514;DHT22;33951;51.988;5.910;2022-09-21T15:39:28;20.30;91.70
47514;DHT22;33951;51.988;5.910;2022-09-21T15:42:14;20.20;91.80
47514;DHT22;33951;51.988;5.910;2022-09-21T15:44:45;20.00;91.20
47514;DHT22;33951;51.988;5.910;2022-09-21T15:47:19;19.50;92.00
47514;DHT22;33951;51.988;5.910;2022-09-21T15:49:45;19.40;92.40
47514;DHT22;33951;51.988;5.910;2022-09-21T15:52:55;19.40;92.10
47514;DHT22;33951;51.988;5.910;2022-09-21T15:55:19;19.30;92.70
47514;DHT22;33951;51.988;5.910;2022-09-21T15:57:47;19.30;92.80
47514;DHT22;33951;51.988;5.910;2022-09-21T16:02:41;19.60;93.00
47514;DHT22;33951;51.988;5.910;2022-09-21T16:05:13;19.70;92.50
47514;DHT22;33951;51.988;5.910;2022-09-21T16:07:39;19.60;92.20
47514;DHT22;33951;51.988;5.910;2022-09-21T16:13:03;19.50;92.00
47514;DHT22;33951;51.988;5.910;2022-09-21T16:21:44;19.20;93.80
47514;DHT22;33951;51.988;5.910;2022-09-21T16:24:18;18.90;92.20
47514;DHT22;33951;51.988;5.910;2022-09-21T16:26:59;18.90;92.40
47514;DHT22;33951;51.988;5.910;2022-09-21T16:29:35;19.20;93.40
47514;DHT22;33951;51.988;5.910;2022-09-21T16:34:51;19.20;92.40
47514;DHT22;33951;51.988;5.910;2022-09-21T16:39:42;19.20;93.40
47514;DHT22;33951;51.988;5.910;2022-09-21T16:42:15;19.20;94.00
47514;DHT22;33951;51.988;5.910;2022-09-21T16:44:41;19.20;93.60
47514;DHT22;33951;51.988;5.910;2022-09-21T16:47:18;19.20;93.40
47514;DHT22;33951;51.988;5.910;2022-09-21T16:49:50;19.10;94.00
47514;DHT22;33951;51.988;5.910;2022-09-21T16:52:24;19.00;94.60
47514;DHT22;33951;51.988;5.910;2022-09-21T16:54:56;18.90;95.10
47514;DHT22;33951;51.988;5.910;2022-09-21T16:57:23;18.80;95.40
47514;DHT22;33951;51.988;5.910;2022-09-21T16:59:50;18.70;95.50
47514;DHT22;33951;51.988;5.910;2022-09-21T17:02:16;18.60;95.70
47514;DHT22;33951;51.988;5.910;2022-09-21T17:04:43;18.50;96.00
47514;DHT22;33951;51.988;5.910;2022-09-21T17:07:15;18.40;96.60
47514;DHT22;33951;51.988;5.910;2022-09-21T17:09:42;18.30;96.90
47514;DHT22;33951;51.988;5.910;2022-09-21T17:12:12;18.10;96.90
47514;DHT22;33951;51.988;5.910;2022-09-21T17:14:38;18.00;97.20
47514;DHT22;33951;51.988;5.910;2022-09-21T17:17:24;17.90;97.10
47514;DHT22;33951;51.988;5.910;2022-09-21T17:19:53;17.80;97.20
47514;DHT22;33951;51.988;5.910;2022-09-21T17:22:19;17.70;97.40
47514;DHT22;33951;51.988;5.910;2022-09-21T17:24:50;17.60;97.60
47514;DHT22;33951;51.988;5.910;2022-09-21T17:27:24;17.40;97.70
47514;DHT22;33951;51.988;5.910;2022-09-21T17:29:52;17.30;98.00
47514;DHT22;33951;51.988;5.910;2022-09-21T17:32:21;17.10;98.10
47514;DHT22;33951;51.988;5.910;2022-09-21T17:35:04;17.00;98.30
47514;DHT22;33951;51.988;5.910;2022-09-21T17:37:36;16.90;98.40
47514;DHT22;33951;51.988;5.910;2022-09-21T17:40:06;16.80;98.40
47514;DHT22;33951;51.988;5.910;2022-09-21T17:42:36;16.70;98.40
47514;DHT22;33951;51.988;5.910;2022-09-21T17:45:16;16.60;98.80
47514;DHT22;33951;51.988;5.910;2022-09-21T17:47:43;16.50;99.20
47514;DHT22;33951;51.988;5.910;2022-09-21T17:50:22;16.40;99.30
47514;DHT22;33951;51.988;5.910;2022-09-21T17:52:48;16.30;99.50
47514;DHT22;33951;51.988;5.910;2022-09-21T17:55:33;16.20;99.60
47514;DHT22;33951;51.988;5.910;2022-09-21T17:58:20;16.10;99.80
47514;DHT22;33951;51.988;5.910;2022-09-21T18:03:36;15.90;99.90
47514;DHT22;33951;51.988;5.910;2022-09-21T18:06:10;15.70;99.90
47514;DHT22;33951;51.988;5.910;2022-09-21T18:08:37;15.50;99.90
47514;DHT22;33951;51.988;5.910;2022-09-21T18:11:57;15.40;99.90
47514;DHT22;33951;51.988;5.910;2022-09-21T18:17:00;15.40;99.90
47514;DHT22;33951;51.988;5.910;2022-09-21T18:20:02;15.30;99.90
47514;DHT22;33951;51.988;5.910;2022-09-21T18:25:14;15.10;99.90
47514;DHT22;33951;51.988;5.910;2022-09-21T18:27:41;15.10;99.90
47514;DHT22;33951;51.988;5.910;2022-09-21T18:30:10;15.00;99.90
47514;DHT22;33951;51.988;5.910;2022-09-21T18:35:27;14.80;99.90
47514;DHT22;33951;51.988;5.910;2022-09-21T18:38:57;14.80;99.90
47514;DHT22;33951;51.988;5.910;2022-09-21T18:41:34;14.70;99.90
47514;DHT22;33951;51.988;5.910;2022-09-21T18:45:04;14.60;99.90
47514;DHT22;33951;51.988;5.910;2022-09-21T18:48:17;14.50;99.90
47514;DHT22;33951;51.988;5.910;2022-09-21T18:55:26;14.40;99.90
47514;DHT22;33951;51.988;5.910;2022-09-21T18:57:56;14.40;99.90
47514;DHT22;33951;51.988;5.910;2022-09-21T19:00:27;14.30;99.90
47514;DHT22;33951;51.988;5.910;2022-09-21T19:02:57;14.20;99.90
47514;DHT22;33951;51.988;5.910;2022-09-21T19:05:23;14.10;99.90
47514;DHT22;33951;51.988;5.910;2022-09-21T19:10:58;13.90;99.90
47514;DHT22;33951;51.988;5.910;2022-09-21T19:14:06;14.00;99.90
47514;DHT22;33951;51.988;5.910;2022-09-21T19:21:54;13.70;99.90
47514;DHT22;33951;51.988;5.910;2022-09-21T19:30:22;13.60;99.90
47514;DHT22;33951;51.988;5.910;2022-09-21T19:32:50;13.50;99.90
47514;DHT22;33951;51.988;5.910;2022-09-21T19:35:26;13.50;99.90
47514;DHT22;33951;51.988;5.910;2022-09-21T19:37:54;13.50;99.90
47514;DHT22;33951;51.988;5.910;2022-09-21T19:40:25;13.50;99.90
47514;DHT22;33951;51.988;5.910;2022-09-21T19:49:15;13.40;99.90
47514;DHT22;33951;51.988;5.910;2022-09-21T19:51:49;13.30;99.90
47514;DHT22;33951;51.988;5.910;2022-09-21T19:54:25;13.30;99.90
47514;DHT22;33951;51.988;5.910;2022-09-21T19:57:15;13.20;99.90
47514;DHT22;33951;51.988;5.910;2022-09-21T20:00:00;13.10;99.90
47514;DHT22;33951;51.988;5.910;2022-09-21T20:02:29;13.10;99.90
47514;DHT22;33951;51.988;5.910;2022-09-21T20:05:20;13.10;99.90
47514;DHT22;33951;51.988;5.910;2022-09-21T20:08:14;13.00;99.90
47514;DHT22;33951;51.988;5.910;2022-09-21T20:17:01;12.90;99.90
47514;DHT22;33951;51.988;5.910;2022-09-21T20:22:35;12.90;99.90
47514;DHT22;33951;51.988;5.910;2022-09-21T20:25:11;12.90;99.90
47514;DHT22;33951;51.988;5.910;2022-09-21T20:27:47;12.80;99.90
47514;DHT22;33951;51.988;5.910;2022-09-21T20:30:15;12.80;99.90
47514;DHT22;33951;51.988;5.910;2022-09-21T20:32:44;12.80;99.90
47514;DHT22;33951;51.988;5.910;2022-09-21T20:35:33;12.80;99.90
47514;DHT22;33951;51.988;5.910;2022-09-21T20:37:59;12.70;99.90
47514;DHT22;33951;51.988;5.910;2022-09-21T20:40:25;12.60;99.90
47514;DHT22;33951;51.988;5.910;2022-09-21T20:42:56;12.60;99.90
47514;DHT22;33951;51.988;5.910;2022-09-21T20:45:23;12.50;99.90
47514;DHT22;33951;51.988;5.910;2022-09-21T20:47:49;12.50;99.90
47514;DHT22;33951;51.988;5.910;2022-09-21T20:50:16;12.50;99.90
47514;DHT22;33951;51.988;5.910;2022-09-21T20:52:42;12.50;99.90
47514;DHT22;33951;51.988;5.910;2022-09-21T20:55:11;12.50;99.90
47514;DHT22;33951;51.988;5.910;2022-09-21T20:57:38;12.30;99.90
47514;DHT22;33951;51.988;5.910;2022-09-21T21:00:06;12.40;99.90
47514;DHT22;33951;51.988;5.910;2022-09-21T21:02:34;12.30;99.90
47514;DHT22;33951;51.988;5.910;2022-09-21T21:05:00;12.30;99.90
47514;DHT22;33951;51.988;5.910;2022-09-21T21:07:28;12.30;99.90
47514;DHT22;33951;51.988;5.910;2022-09-21T21:09:54;12.30;99.90
47514;DHT22;33951;51.988;5.910;2022-09-21T21:12:20;12.40;99.90
47514;DHT22;33951;51.988;5.910;2022-09-21T21:14:48;12.30;99.90
47514;DHT22;33951;51.988;5.910;2022-09-21T21:17:14;12.30;99.90
47514;DHT22;33951;51.988;5.910;2022-09-21T21:19:43;12.20;99.90
47514;DHT22;33951;51.988;5.910;2022-09-21T21:22:10;12.20;99.90
47514;DHT22;33951;51.988;5.910;2022-09-21T21:24:36;12.20;99.90
47514;DHT22;33951;51.988;5.910;2022-09-21T21:27:11;12.20;99.90
47514;DHT22;33951;51.988;5.910;2022-09-21T21:29:44;12.20;99.90
47514;DHT22;33951;51.988;5.910;2022-09-21T21:32:13;12.10;99.90
47514;DHT22;33951;51.988;5.910;2022-09-21T21:34:39;12.10;99.90
47514;DHT22;33951;51.988;5.910;2022-09-21T21:37:05;12.00;99.90
47514;DHT22;33951;51.988;5.910;2022-09-21T21:39:30;12.10;99.90
47514;DHT22;33951;51.988;5.910;2022-09-21T21:41:56;12.10;99.90
47514;DHT22;33951;51.988;5.910;2022-09-21T21:44:22;12.20;99.90
47514;DHT22;33951;51.988;5.910;2022-09-21T21:46:47;12.10;99.90
47514;DHT22;33951;51.988;5.910;2022-09-21T21:49:15;12.10;99.90
47514;DHT22;33951;51.988;5.910;2022-09-21T21:51:40;11.90;99.90
47514;DHT22;33951;51.988;5.910;2022-09-21T21:54:06;11.90;99.90
47514;DHT22;33951;51.988;5.910;2022-09-21T21:56:32;11.80;99.90
47514;DHT22;33951;51.988;5.910;2022-09-21T21:59:01;11.90;99.90
47514;DHT22;33951;51.988;5.910;2022-09-21T22:01:27;12.00;99.90
47514;DHT22;33951;51.988;5.910;2022-09-21T22:04:00;12.00;99.90
47514;DHT22;33951;51.988;5.910;2022-09-21T22:06:27;11.90;99.90
47514;DHT22;33951;51.988;5.910;2022-09-21T22:08:53;11.90;99.90
47514;DHT22;33951;51.988;5.910;2022-09-21T22:11:25;11.90;99.90
47514;DHT22;33951;51.988;5.910;2022-09-21T22:13:52;11.80;99.90
47514;DHT22;33951;51.988;5.910;2022-09-21T22:16:22;11.80;99.90
47514;DHT22;33951;51.988;5.910;2022-09-21T22:18:51;11.80;99.90
47514;DHT22;33951;51.988;5.910;2022-09-21T22:21:25;11.80;99.90
47514;DHT22;33951;51.988;5.910;2022-09-21T22:23:56;11.80;99.90
47514;DHT22;33951;51.988;5.910;2022-09-21T22:26:23;11.80;99.90
47514;DHT22;33951;51.988;5.910;2022-09-21T22:28:54;11.70;99.90
47514;DHT22;33951;51.988;5.910;2022-09-21T22:31:23;11.70;99.90
47514;DHT22;33951;51.988;5.910;2022-09-21T22:33:51;11.60;99.90
47514;DHT22;33951;51.988;5.910;2022-09-21T22:36:20;11.70;99.90
47514;DHT22;33951;51.988;5.910;2022-09-21T22:38:49;11.70;99.90
47514;DHT22;33951;51.988;5.910;2022-09-21T22:41:16;11.60;99.90
47514;DHT22;33951;51.988;5.910;2022-09-21T22:43:43;11.60;99.90
47514;DHT22;33951;51.988;5.910;2022-09-21T22:46:12;11.60;99.90
47514;DHT22;33951;51.988;5.910;2022-09-21T22:48:38;11.50;99.90
47514;DHT22;33951;51.988;5.910;2022-09-21T22:51:04;11.60;99.90
47514;DHT22;33951;51.988;5.910;2022-09-21T22:53:30;11.50;99.90
47514;DHT22;33951;51.988;5.910;2022-09-21T22:56:16;11.50;99.90
47514;DHT22;33951;51.988;5.910;2022-09-21T22:58:44;11.50;99.90
47514;DHT22;33951;51.988;5.910;2022-09-21T23:01:28;11.50;99.90
47514;DHT22;33951;51.988;5.910;2022-09-21T23:03:56;11.50;99.90
47514;DHT22;33951;51.988;5.910;2022-09-21T23:06:25;11.50;99.90
47514;DHT22;33951;51.988;5.910;2022-09-21T23:08:52;11.50;99.90
47514;DHT22;33951;51.988;5.910;2022-09-21T23:11:32;11.40;99.90
47514;DHT22;33951;51.988;5.910;2022-09-21T23:13:58;11.40;99.90
47514;DHT22;33951;51.988;5.910;2022-09-21T23:16:26;11.30;99.90
47514;DHT22;33951;51.988;5.910;2022-09-21T23:18:52;11.30;99.90
47514;DHT22;33951;51.988;5.910;2022-09-21T23:21:20;11.20;99.90
47514;DHT22;33951;51.988;5.910;2022-09-21T23:23:47;11.20;99.90
47514;DHT22;33951;51.988;5.910;2022-09-21T23:26:18;11.20;99.90
47514;DHT22;33951;51.988;5.910;2022-09-21T23:28:49;11.20;99.90
47514;DHT22;33951;51.988;5.910;2022-09-21T23:31:15;11.10;99.90
47514;DHT22;33951;51.988;5.910;2022-09-21T23:33:49;11.10;99.90
47514;DHT22;33951;51.988;5.910;2022-09-21T23:36:17;11.10;99.90
47514;DHT22;33951;51.988;5.910;2022-09-21T23:38:44;11.20;99.90
47514;DHT22;33951;51.988;5.910;2022-09-21T23:41:23;11.10;99.90
47514;DHT22;33951;51.988;5.910;2022-09-21T23:43:50;11.20;99.90
47514;DHT22;33951;51.988;5.910;2022-09-21T23:46:17;11.10;99.90
47514;DHT22;33951;51.988;5.910;2022-09-21T23:48:43;11.10;99.90
47514;DHT22;33951;51.988;5.910;2022-09-21T23:51:10;11.20;99.90
47514;DHT22;33951;51.988;5.910;2022-09-21T23:53:35;11.10;99.90
47514;DHT22;33951;51.988;5.910;2022-09-21T23:56:02;11.10;99.90
47514;DHT22;33951;51.988;5.910;2022-09-21T23:58:28;11.00;99.90
